createdAt,value
2019-02-12T05:18:27.437Z,1.50
2019-02-12T05:20:56.291Z,1.50
2019-02-12T05:23:25.145Z,1.50
2019-02-12T05:25:53.982Z,1.50
2019-02-12T05:28:22.828Z,1.50
2019-02-12T05:30:51.684Z,1.50
2019-02-12T05:33:20.616Z,1.50
2019-02-12T05:35:49.513Z,1.50
2019-02-12T05:38:18.354Z,1.50
2019-02-12T05:40:47.206Z,1.50
2019-02-12T05:43:16.054Z,1.50
2019-02-12T05:45:44.901Z,1.50
2019-02-12T05:48:13.746Z,1.40
2019-02-12T05:50:42.597Z,1.50
2019-02-12T05:53:11.470Z,1.50
2019-02-12T05:55:40.328Z,1.50
2019-02-12T05:58:09.263Z,1.50
2019-02-12T06:00:38.182Z,1.50
2019-02-12T06:03:07.029Z,1.50
2019-02-12T06:05:35.943Z,1.50
2019-02-12T06:08:04.786Z,1.50
2019-02-12T06:10:33.632Z,1.60
2019-02-12T06:13:02.468Z,1.60
2019-02-12T06:15:31.373Z,1.60
2019-02-12T06:18:00.219Z,1.60
2019-02-12T06:20:29.053Z,1.60
2019-02-12T06:23:03.855Z,1.60
2019-02-12T06:25:28.639Z,1.60
2019-02-12T06:27:57.473Z,1.60
2019-02-12T06:30:26.343Z,1.60
2019-02-12T06:32:55.333Z,1.50
2019-02-12T06:35:24.202Z,1.50
2019-02-12T06:37:53.046Z,1.40
2019-02-12T06:40:21.879Z,1.40
2019-02-12T06:42:50.731Z,1.40
2019-02-12T06:45:19.629Z,1.40
2019-02-12T06:47:48.488Z,1.40
2019-02-12T06:50:17.350Z,1.40
2019-02-12T06:52:46.169Z,1.40
2019-02-12T06:55:15.018Z,1.40
2019-02-12T06:57:44.016Z,1.50
2019-02-12T07:00:12.990Z,1.50
2019-02-12T07:03:20.674Z,1.50
2019-02-12T07:06:05.253Z,1.50
2019-02-12T07:09:14.010Z,1.50
2019-02-12T07:12:07.713Z,1.50
2019-02-12T07:15:24.012Z,1.40
2019-02-12T07:18:36.914Z,1.50
2019-02-12T07:21:49.992Z,1.60
2019-02-12T07:24:53.892Z,1.80
2019-02-12T07:27:46.173Z,1.90
2019-02-12T07:31:05.243Z,1.90
2019-02-12T07:34:23.468Z,1.80
2019-02-12T07:37:29.980Z,1.90
2019-02-12T07:40:46.245Z,2.00
2019-02-12T07:43:59.320Z,1.90
2019-02-12T07:46:57.495Z,1.90
2019-02-12T07:49:46.333Z,1.70
2019-02-12T07:52:47.052Z,1.70
2019-02-12T07:55:55.747Z,1.60
2019-02-12T07:59:11.116Z,1.60
2019-02-12T08:02:29.119Z,1.60
2019-02-12T08:05:48.264Z,1.70
2019-02-12T08:08:57.136Z,1.80
2019-02-12T08:12:04.003Z,2.00
2019-02-12T08:15:14.797Z,1.90
2019-02-12T08:18:21.324Z,1.90
2019-02-12T08:21:14.871Z,1.90
2019-02-12T08:24:34.402Z,1.90
2019-02-12T09:14:28.906Z,3.60
2019-02-12T09:21:46.694Z,4.10
2019-02-12T09:24:45.394Z,4.10
2019-02-12T09:27:44.283Z,4.10
2019-02-12T09:30:50.481Z,4.10
2019-02-12T09:33:45.213Z,4.10
2019-02-12T09:37:00.931Z,3.90
2019-02-12T09:39:52.794Z,3.70
2019-02-12T09:43:27.364Z,3.60
2019-02-12T09:50:21.592Z,3.90
2019-02-12T09:53:20.698Z,4.10
2019-02-12T09:56:28.419Z,4.10
2019-02-12T10:00:03.227Z,4.40
2019-02-12T10:03:01.833Z,4.50
2019-02-12T10:06:21.542Z,4.60
2019-02-12T10:09:29.256Z,4.80
2019-02-12T10:12:35.493Z,5.00
2019-02-12T10:15:35.651Z,4.90
2019-02-12T10:18:22.326Z,4.60
2019-02-12T10:21:11.117Z,4.80
2019-02-12T10:24:01.687Z,5.00
2019-02-12T10:26:30.673Z,5.20
2019-02-12T10:29:23.436Z,5.40
2019-02-12T10:31:57.531Z,5.20
2019-02-12T10:34:26.307Z,5.10
2019-02-12T10:36:55.270Z,5.10
2019-02-12T10:39:24.331Z,5.10
2019-02-12T10:41:55.529Z,5.00
2019-02-12T10:44:24.557Z,5.00
2019-02-12T10:46:53.600Z,5.00
2019-02-12T10:49:22.522Z,5.00
2019-02-12T10:51:53.056Z,5.10
2019-02-12T10:54:27.898Z,5.20
2019-02-12T10:56:52.797Z,5.40
2019-02-12T10:59:22.043Z,5.50
2019-02-12T11:01:51.530Z,5.40
2019-02-12T11:04:21.825Z,5.50
2019-02-12T11:06:50.785Z,5.40
2019-02-12T11:09:21.941Z,5.40
2019-02-12T11:11:50.906Z,5.50
2019-02-12T11:14:20.863Z,5.50
2019-02-12T11:16:49.813Z,5.30
2019-02-12T11:19:18.762Z,5.20
2019-02-12T11:21:47.794Z,5.20
2019-02-12T11:24:16.705Z,5.20
2019-02-12T11:26:45.675Z,4.70
2019-02-12T11:29:17.098Z,4.20
2019-02-12T11:31:46.074Z,4.20
2019-02-12T11:34:14.938Z,4.10
2019-02-12T11:36:43.822Z,4.20
2019-02-12T11:39:12.821Z,4.20
2019-02-12T11:41:41.724Z,4.30
2019-02-12T11:44:10.604Z,4.20
2019-02-12T11:46:41.648Z,4.20
2019-02-12T11:49:13.029Z,4.20
2019-02-12T11:51:42.028Z,4.10
2019-02-12T11:54:15.218Z,4.00
2019-02-12T11:56:44.280Z,4.20
2019-02-12T11:59:13.537Z,4.30
2019-02-12T12:01:42.510Z,4.70
2019-02-12T12:04:31.100Z,4.90
2019-02-12T12:07:23.164Z,5.10
2019-02-12T12:10:18.010Z,5.40
2019-02-12T12:16:02.537Z,5.30
2019-02-12T12:18:39.658Z,5.30
2019-02-12T12:21:10.025Z,5.40
2019-02-12T12:23:39.960Z,5.30
2019-02-12T12:26:12.202Z,5.40
2019-02-12T12:28:43.433Z,5.30
2019-02-12T12:31:13.660Z,5.00
2019-02-12T12:33:42.700Z,4.70
2019-02-12T12:36:11.665Z,4.50
2019-02-12T12:38:40.555Z,4.50
2019-02-12T12:41:09.528Z,4.70
2019-02-12T12:43:38.606Z,4.70
2019-02-12T12:46:28.054Z,4.60
2019-02-12T12:48:57.038Z,4.50
2019-02-12T12:51:27.096Z,4.40
2019-02-12T12:53:57.539Z,4.60
2019-02-12T12:56:26.497Z,4.60
2019-02-12T12:58:56.544Z,4.50
2019-02-12T13:01:25.512Z,4.60
2019-02-12T13:03:55.637Z,4.60
2019-02-12T13:06:24.605Z,4.60
2019-02-12T13:08:53.505Z,4.70
2019-02-12T13:11:23.783Z,4.70
2019-02-12T13:13:56.145Z,4.40
2019-02-12T13:16:25.328Z,4.30
2019-02-12T13:18:55.850Z,4.20
2019-02-12T13:21:26.163Z,4.10
2019-02-12T13:23:59.353Z,4.10
2019-02-12T13:26:29.743Z,4.10
2019-02-12T13:28:58.641Z,4.10
2019-02-12T13:31:27.653Z,4.30
2019-02-12T13:33:56.623Z,4.60
2019-02-12T13:36:27.989Z,4.80
2019-02-12T13:38:58.309Z,4.80
2019-02-12T13:41:27.947Z,4.70
2019-02-12T13:43:57.698Z,4.70
2019-02-12T13:46:26.671Z,4.70
2019-02-12T13:48:56.430Z,4.80
2019-02-12T13:51:30.681Z,4.90
2019-02-12T13:53:59.886Z,4.80
2019-02-12T13:56:28.833Z,4.90
2019-02-12T13:58:58.037Z,5.10
2019-02-12T14:01:28.278Z,5.30
2019-02-12T14:03:57.328Z,5.50
2019-02-12T14:06:26.998Z,5.70
2019-02-12T14:08:56.288Z,6.10
2019-02-12T14:11:27.613Z,6.20
2019-02-12T14:13:56.492Z,6.20
2019-02-12T14:16:25.441Z,6.50
2019-02-12T14:18:54.415Z,6.70
2019-02-12T14:21:23.640Z,6.70
2019-02-12T14:23:52.616Z,6.60
2019-02-12T14:26:21.580Z,6.50
2019-02-12T14:28:50.554Z,6.30
2019-02-12T14:31:20.943Z,6.00
2019-02-12T14:33:49.907Z,5.60
2019-02-12T14:36:18.862Z,5.40
2019-02-12T14:38:47.822Z,5.40
2019-02-12T14:41:17.203Z,5.30
2019-02-12T14:47:19.451Z,5.00
